Time;durP1;ratioP1;P1;durP2;ratioP2;P2;SDS_P1;SDS_P2;PMS_P1;PMS_P2;Temp;Humidity;BMP_temperature;BMP_pressure;BME280_temperature;BME280_humidity;BME280_pressure;Samples;Min_cycle;Max_cycle;Signal;HPM_P1;HPM_P2
2022/09/26 00:00:44;;;;;;;7.10;3.80;;;14.00;75.10;;;;;;5115081;28;20076;-61
2022/09/26 00:03:10;;;;;;;8.40;4.13;;;14.00;75.10;;;;;;5115233;28;20020;-61
2022/09/26 00:05:37;;;;;;;6.80;3.78;;;14.00;75.10;;;;;;5122307;27;20409;-61
2022/09/26 00:08:04;;;;;;;5.90;3.42;;;14.00;75.10;;;;;;5109950;27;20444;-61
2022/09/26 00:10:30;;;;;;;7.95;4.38;;;14.00;75.10;;;;;;5115322;28;20096;-61
2022/09/26 00:12:56;;;;;;;7.47;4.18;;;14.00;75.20;;;;;;5115165;28;20039;-61
2022/09/26 00:15:22;;;;;;;9.02;3.80;;;14.00;75.20;;;;;;5115416;28;20083;-61
2022/09/26 00:17:48;;;;;;;7.50;3.80;;;14.00;75.20;;;;;;5114544;28;20080;-61
2022/09/26 00:20:14;;;;;;;7.10;3.80;;;14.10;75.30;;;;;;5114552;28;20031;-61
2022/09/26 00:22:39;;;;;;;8.48;3.22;;;14.10;75.30;;;;;;5114502;28;20020;-61
2022/09/26 00:25:05;;;;;;;8.18;3.83;;;14.10;75.30;;;;;;5114613;28;20391;-61
2022/09/26 00:27:31;;;;;;;6.68;3.42;;;14.10;75.30;;;;;;5115554;28;20088;-61
2022/09/26 00:29:57;;;;;;;6.97;3.45;;;14.10;75.20;;;;;;5130803;27;20047;-62
2022/09/26 00:32:23;;;;;;;7.57;3.15;;;14.10;75.20;;;;;;5118359;27;20051;-61
2022/09/26 00:34:49;;;;;;;7.50;3.47;;;14.10;75.10;;;;;;5115450;28;20027;-61
2022/09/26 00:37:15;;;;;;;6.57;3.47;;;14.10;75.10;;;;;;5115111;28;20030;-61
2022/09/26 00:39:41;;;;;;;8.38;3.42;;;14.20;75.20;;;;;;5115534;28;20451;-61
2022/09/26 00:42:13;;;;;;;6.50;3.35;;;14.20;75.10;;;;;;5114755;28;20031;-61
2022/09/26 00:44:47;;;;;;;7.63;3.47;;;14.20;75.00;;;;;;5116109;28;20086;-62
2022/09/26 00:47:27;;;;;;;6.63;3.35;;;14.20;75.00;;;;;;5113413;28;20027;-61
2022/09/26 00:50:01;;;;;;;7.53;3.22;;;14.20;75.00;;;;;;5115163;28;20079;-61
2022/09/26 00:52:37;;;;;;;7.05;3.10;;;14.20;75.00;;;;;;5125080;27;20039;-61
2022/09/26 00:55:06;;;;;;;6.53;3.13;;;14.30;74.90;;;;;;5101127;28;20093;-61
2022/09/26 00:57:44;;;;;;;8.63;3.25;;;14.20;74.90;;;;;;5131165;28;20027;-61
2022/09/26 01:00:11;;;;;;;6.68;3.20;;;14.20;74.80;;;;;;5130590;28;20452;-61
2022/09/26 01:02:37;;;;;;;6.53;3.03;;;14.30;74.80;;;;;;5113290;28;20043;-61
2022/09/26 01:05:05;;;;;;;6.28;2.92;;;14.30;74.70;;;;;;5131275;28;20436;-61
2022/09/26 01:07:32;;;;;;;7.18;3.35;;;14.30;74.70;;;;;;5114966;28;20059;-61
2022/09/26 01:09:59;;;;;;;6.47;3.05;;;14.30;74.70;;;;;;5115835;28;20788;-61
2022/09/26 01:12:25;;;;;;;7.53;3.42;;;14.30;74.70;;;;;;5119376;28;20050;-61
2022/09/26 01:14:53;;;;;;;6.47;3.20;;;14.20;74.80;;;;;;5117356;28;20052;-61
2022/09/26 01:17:23;;;;;;;6.82;3.30;;;14.30;75.00;;;;;;5133067;27;20023;-61
2022/09/26 01:20:17;;;;;;;7.28;3.72;;;14.20;75.10;;;;;;5119757;27;20031;-61
2022/09/26 01:23:01;;;;;;;8.57;3.88;;;14.20;75.30;;;;;;5119203;28;20088;-61
2022/09/26 01:25:52;;;;;;;6.70;3.50;;;14.20;75.50;;;;;;5129738;27;20111;-61
2022/09/26 01:28:58;;;;;;;5.78;2.90;;;14.20;75.70;;;;;;5118881;28;20444;-61
2022/09/26 01:32:47;;;;;;;7.43;3.28;;;14.20;75.70;;;;;;5134543;27;20022;-61
2022/09/26 01:34:46;;;;;;;6.72;2.88;;;14.20;76.00;;;;;;5115611;28;20410;-61
2022/09/26 01:37:45;;;;;;;6.38;3.17;;;14.10;76.00;;;;;;5134640;27;20027;-61
2022/09/26 01:40:30;;;;;;;9.18;3.42;;;14.10;76.00;;;;;;5133180;27;20364;-61
2022/09/26 01:43:24;;;;;;;7.68;3.60;;;14.10;76.10;;;;;;5135002;27;20352;-61
2022/09/26 01:46:01;;;;;;;6.65;3.35;;;14.20;76.20;;;;;;5114593;27;20020;-61
2022/09/26 01:48:36;;;;;;;7.68;3.53;;;14.10;76.30;;;;;;5129062;27;20023;-61
2022/09/26 01:51:10;;;;;;;8.20;3.70;;;14.10;76.30;;;;;;5120362;27;20030;-61
2022/09/26 01:53:47;;;;;;;7.10;3.65;;;14.20;76.40;;;;;;5116838;28;20028;-61
2022/09/26 01:56:17;;;;;;;7.22;3.80;;;14.20;76.40;;;;;;5113598;28;20078;-61
2022/09/26 01:58:59;;;;;;;6.65;3.17;;;14.20;76.40;;;;;;5133997;27;20028;-61
2022/09/26 02:01:28;;;;;;;7.82;3.72;;;14.20;76.30;;;;;;5134456;27;20106;-61
2022/09/26 02:03:58;;;;;;;7.65;3.60;;;14.20;76.30;;;;;;5134045;27;20019;-61
2022/09/26 02:06:41;;;;;;;7.13;4.03;;;14.20;76.30;;;;;;5112620;27;20470;-61
2022/09/26 02:09:12;;;;;;;7.95;3.63;;;14.20;76.30;;;;;;5131580;27;20035;-61
2022/09/26 02:11:41;;;;;;;7.20;3.50;;;14.20;76.30;;;;;;5133649;27;20024;-61
2022/09/26 02:14:14;;;;;;;8.38;3.97;;;14.10;76.30;;;;;;5116212;28;20447;-61
2022/09/26 02:16:49;;;;;;;8.75;3.80;;;14.20;76.30;;;;;;5132373;27;20030;-61
2022/09/26 02:19:23;;;;;;;7.05;3.47;;;14.10;76.10;;;;;;5116235;28;20032;-61
2022/09/26 02:21:49;;;;;;;6.90;3.50;;;14.10;76.10;;;;;;5127641;27;20027;-61
2022/09/26 02:24:16;;;;;;;9.27;3.40;;;14.10;76.00;;;;;;5132549;28;20024;-61
2022/09/26 02:26:42;;;;;;;7.50;3.67;;;14.10;75.90;;;;;;5116646;28;20115;-61
2022/09/26 02:29:10;;;;;;;6.88;3.60;;;14.10;75.80;;;;;;5114994;28;20023;-61
2022/09/26 02:31:48;;;;;;;7.28;3.30;;;14.10;75.70;;;;;;5115337;28;20440;-61
2022/09/26 02:34:14;;;;;;;9.63;3.85;;;14.20;75.60;;;;;;5130707;27;20027;-61
2022/09/26 02:36:40;;;;;;;7.75;3.40;;;14.20;75.50;;;;;;5096186;28;20554;-61
2022/09/26 02:39:08;;;;;;;8.85;3.85;;;14.10;75.40;;;;;;5115141;28;20528;-61
2022/09/26 02:41:59;;;;;;;6.00;3.38;;;14.20;75.40;;;;;;5132369;28;20031;-61
2022/09/26 02:44:33;;;;;;;9.40;3.67;;;14.20;75.30;;;;;;5116205;28;20020;-61
2022/09/26 02:47:26;;;;;;;6.82;3.22;;;14.20;75.20;;;;;;5114520;28;20100;-61
2022/09/26 02:50:40;;;;;;;8.02;3.45;;;14.20;75.00;;;;;;5115508;28;20328;-61
2022/09/26 02:53:32;;;;;;;9.60;3.42;;;14.20;74.80;;;;;;5120381;27;20032;-61
2022/09/26 02:56:06;;;;;;;6.43;3.22;;;14.10;74.90;;;;;;5098032;28;20448;-61
2022/09/26 02:58:58;;;;;;;7.90;3.50;;;14.10;74.80;;;;;;5128321;28;20047;-61
2022/09/26 03:01:41;;;;;;;8.82;3.17;;;14.10;74.70;;;;;;5120163;28;20031;-61
2022/09/26 03:04:20;;;;;;;6.72;3.13;;;14.10;74.60;;;;;;5095856;28;20015;-61
2022/09/26 03:06:50;;;;;;;12.57;3.50;;;14.10;74.50;;;;;;5131536;27;20031;-61
2022/09/26 03:09:18;;;;;;;7.40;3.00;;;14.10;74.40;;;;;;5131127;28;20057;-61
2022/09/26 03:11:46;;;;;;;8.25;3.50;;;14.10;74.40;;;;;;5130953;28;20023;-61
2022/09/26 03:14:13;;;;;;;8.93;3.40;;;14.10;74.30;;;;;;5094449;28;1049611;-61
2022/09/26 03:16:43;;;;;;;7.07;3.53;;;14.10;74.30;;;;;;5116544;27;20030;-61
2022/09/26 03:19:31;;;;;;;8.10;3.40;;;14.10;74.30;;;;;;5114981;28;20020;-61
2022/09/26 03:21:58;;;;;;;8.43;3.38;;;14.10;74.30;;;;;;5132678;27;20034;-61
2022/09/26 03:24:25;;;;;;;6.45;2.97;;;14.10;74.30;;;;;;5132298;27;20020;-61
2022/09/26 03:26:52;;;;;;;7.82;3.25;;;14.10;74.40;;;;;;5131958;27;20156;-61
2022/09/26 03:29:19;;;;;;;6.00;3.03;;;14.10;74.40;;;;;;5116306;28;20416;-61
2022/09/26 03:31:45;;;;;;;7.15;3.08;;;14.10;74.50;;;;;;5113506;28;20085;-61
2022/09/26 03:34:11;;;;;;;7.88;3.40;;;14.10;74.60;;;;;;5115833;28;20379;-61
2022/09/26 03:36:38;;;;;;;7.47;3.30;;;14.10;74.70;;;;;;5133845;27;20440;-61
2022/09/26 03:39:06;;;;;;;8.77;3.30;;;14.10;74.80;;;;;;5116223;27;20031;-61
2022/09/26 03:41:47;;;;;;;9.13;3.55;;;14.00;74.90;;;;;;5112052;28;20503;-61
2022/09/26 03:44:16;;;;;;;10.82;3.67;;;14.00;74.90;;;;;;5116296;28;20466;-61
2022/09/26 03:47:04;;;;;;;6.60;3.08;;;14.00;74.90;;;;;;5115025;27;20034;-61
2022/09/26 03:49:35;;;;;;;6.93;3.30;;;14.00;75.00;;;;;;5105371;28;20360;-61
2022/09/26 03:52:01;;;;;;;9.45;3.50;;;13.90;75.10;;;;;;5114289;28;20024;-61
2022/09/26 03:54:27;;;;;;;7.20;2.92;;;13.90;75.20;;;;;;5130885;27;20062;-61
2022/09/26 03:56:54;;;;;;;8.80;3.72;;;13.90;75.30;;;;;;5129645;27;20024;-61
2022/09/26 03:59:20;;;;;;;9.18;3.35;;;13.90;76.00;;;;;;5114030;28;20072;-61
2022/09/26 04:01:47;;;;;;;6.93;2.97;;;13.90;75.40;;;;;;5114786;28;20440;-61
2022/09/26 04:04:15;;;;;;;7.20;2.72;;;13.90;75.30;;;;;;5115130;28;20016;-61
2022/09/26 04:06:43;;;;;;;6.72;2.85;;;13.90;75.30;;;;;;5113685;27;20023;-61
2022/09/26 04:09:10;;;;;;;7.47;3.28;;;13.80;75.20;;;;;;5113890;28;20016;-61
2022/09/26 04:11:36;;;;;;;7.68;3.40;;;13.80;75.20;;;;;;5114439;28;20092;-61
2022/09/26 04:14:02;;;;;;;6.50;2.90;;;13.80;75.30;;;;;;5130963;27;20444;-61
2022/09/26 04:16:31;;;;;;;7.72;3.28;;;13.80;75.30;;;;;;5129939;27;20035;-61
2022/09/26 04:19:07;;;;;;;7.65;2.95;;;13.80;75.30;;;;;;5114671;28;20351;-61
2022/09/26 04:21:34;;;;;;;7.70;2.85;;;13.80;75.30;;;;;;5114060;28;20021;-61
2022/09/26 04:24:01;;;;;;;6.10;3.20;;;13.80;75.20;;;;;;5113608;28;20024;-61
2022/09/26 04:26:27;;;;;;;6.80;2.72;;;13.80;75.20;;;;;;5112838;28;20027;-61
2022/09/26 04:28:55;;;;;;;7.35;3.00;;;13.80;75.10;;;;;;5113734;28;20028;-61
2022/09/26 04:31:26;;;;;;;7.25;3.08;;;13.80;75.10;;;;;;5113870;28;20042;-61
2022/09/26 04:33:59;;;;;;;7.47;2.42;;;13.80;75.00;;;;;;5131181;27;20027;-61
2022/09/26 04:36:24;;;;;;;9.30;2.80;;;13.80;74.90;;;;;;5113427;28;20029;-61
2022/09/26 04:38:50;;;;;;;5.30;2.53;;;13.80;74.80;;;;;;5119080;27;20030;-61
2022/09/26 04:41:19;;;;;;;7.60;2.72;;;13.80;74.90;;;;;;5131447;27;20030;-61
2022/09/26 04:43:47;;;;;;;6.40;2.47;;;13.80;74.70;;;;;;5117846;27;20046;-61
2022/09/26 04:46:21;;;;;;;7.65;2.70;;;13.70;74.50;;;;;;5116111;27;20022;-61
2022/09/26 04:48:49;;;;;;;7.05;2.65;;;13.70;74.30;;;;;;5097328;28;20024;-61
2022/09/26 04:51:19;;;;;;;6.45;2.80;;;13.70;74.30;;;;;;5130435;27;20016;-61
2022/09/26 04:53:47;;;;;;;5.65;2.45;;;13.80;74.30;;;;;;5112925;28;20027;-61
2022/09/26 04:56:20;;;;;;;7.70;2.25;;;13.80;74.10;;;;;;5114131;28;20329;-61
2022/09/26 04:58:46;;;;;;;5.43;2.25;;;13.70;74.00;;;;;;5113182;28;20032;-61
2022/09/26 05:01:15;;;;;;;7.72;2.60;;;13.70;73.90;;;;;;5113002;28;20020;-61
2022/09/26 05:03:56;;;;;;;5.90;2.63;;;13.70;73.80;;;;;;5113608;28;20364;-61
2022/09/26 05:06:22;;;;;;;6.07;2.42;;;13.70;73.80;;;;;;5113184;28;20072;-61
2022/09/26 05:08:47;;;;;;;7.65;2.85;;;13.70;73.80;;;;;;5109434;28;20040;-61
2022/09/26 05:11:17;;;;;;;6.05;2.60;;;13.70;73.70;;;;;;5130522;28;20020;-61
2022/09/26 05:13:43;;;;;;;5.25;2.20;;;13.70;73.60;;;;;;5110746;28;20024;-61
2022/09/26 05:16:11;;;;;;;6.22;2.22;;;13.70;73.40;;;;;;5128884;27;20047;-61
2022/09/26 05:18:38;;;;;;;5.35;2.25;;;13.70;73.40;;;;;;5112941;28;20028;-61
2022/09/26 05:21:06;;;;;;;8.05;2.45;;;13.70;73.30;;;;;;5112764;28;20024;-61
2022/09/26 05:26:28;;;;;;;7.38;2.53;;;13.70;73.30;;;;;;5115130;28;20065;-61
2022/09/26 05:29:03;;;;;;;6.72;2.67;;;13.70;73.40;;;;;;5127430;28;20023;-61
2022/09/26 05:31:38;;;;;;;5.85;2.42;;;13.70;73.50;;;;;;5130197;27;20123;-61
2022/09/26 05:34:06;;;;;;;7.75;2.58;;;13.60;73.70;;;;;;5130892;27;20043;-61
2022/09/26 05:36:32;;;;;;;6.20;2.50;;;13.60;73.70;;;;;;5129730;27;20444;-61
2022/09/26 05:38:58;;;;;;;6.47;2.30;;;13.60;73.80;;;;;;5117456;28;20015;-61
2022/09/26 05:41:27;;;;;;;8.10;2.70;;;13.60;73.90;;;;;;5112822;28;20031;-61
2022/09/26 05:43:53;;;;;;;6.68;2.10;;;13.60;73.90;;;;;;5127201;28;20012;-61
2022/09/26 05:46:19;;;;;;;6.40;2.60;;;13.60;73.90;;;;;;5116219;28;20467;-61
2022/09/26 05:48:49;;;;;;;6.88;2.90;;;13.60;74.00;;;;;;5097618;28;20028;-61
2022/09/26 05:51:20;;;;;;;5.25;2.05;;;13.50;74.10;;;;;;5112551;28;20077;-61
2022/09/26 05:53:48;;;;;;;6.80;2.92;;;13.60;74.10;;;;;;5113977;28;20035;-61
2022/09/26 05:56:18;;;;;;;6.73;2.50;;;13.60;74.10;;;;;;5119090;27;20033;-61
2022/09/26 05:59:06;;;;;;;9.52;2.92;;;13.50;73.90;;;;;;5114328;27;20055;-61
2022/09/26 06:01:50;;;;;;;7.53;2.45;;;13.50;74.00;;;;;;5118339;27;20042;-61
2022/09/26 06:04:31;;;;;;;6.35;2.55;;;13.50;74.10;;;;;;5110498;27;20122;-61
2022/09/26 06:07:19;;;;;;;7.22;2.97;;;13.60;74.10;;;;;;5111090;28;20093;-61
2022/09/26 06:09:45;;;;;;;8.82;2.85;;;13.60;74.00;;;;;;5133286;27;20023;-62
2022/09/26 06:12:27;;;;;;;6.43;2.50;;;13.60;74.00;;;;;;5115463;27;20084;-61
2022/09/26 06:14:53;;;;;;;7.00;2.40;;;13.70;73.90;;;;;;5119596;27;20047;-61
2022/09/26 06:17:19;;;;;;;6.18;2.45;;;13.70;73.90;;;;;;5116173;28;20035;-60
2022/09/26 06:19:44;;;;;;;7.65;2.28;;;13.70;74.00;;;;;;5116968;27;20470;-61
2022/09/26 06:22:10;;;;;;;6.22;2.67;;;13.70;73.90;;;;;;5134238;27;20171;-61
2022/09/26 06:24:36;;;;;;;7.47;2.70;;;13.70;73.90;;;;;;5132782;27;20027;-62
2022/09/26 06:27:02;;;;;;;4.90;2.15;;;13.70;73.90;;;;;;5114375;27;20375;-62
2022/09/26 06:29:29;;;;;;;6.78;2.28;;;13.70;73.90;;;;;;5114543;28;20085;-62
2022/09/26 06:31:55;;;;;;;6.20;2.30;;;13.70;73.90;;;;;;5114963;27;20016;-62
2022/09/26 06:34:35;;;;;;;6.28;2.55;;;13.70;73.90;;;;;;5112053;27;20046;-62
2022/09/26 06:37:11;;;;;;;7.43;2.22;;;13.70;74.00;;;;;;5116313;28;20104;-62
2022/09/26 06:39:37;;;;;;;6.35;2.28;;;13.70;73.90;;;;;;5133488;27;20486;-62
2022/09/26 06:42:06;;;;;;;6.63;2.63;;;13.60;73.80;;;;;;5115266;28;20023;-62
2022/09/26 06:44:49;;;;;;;5.95;1.98;;;13.70;73.90;;;;;;5100987;27;20027;-62
2022/09/26 06:47:24;;;;;;;6.53;2.60;;;13.60;73.90;;;;;;5131801;27;20027;-62
2022/09/26 06:50:20;;;;;;;5.85;2.20;;;13.60;73.90;;;;;;5119842;27;20420;-61
2022/09/26 06:52:50;;;;;;;9.25;2.50;;;13.70;74.00;;;;;;5133482;27;20047;-61
2022/09/26 06:55:16;;;;;;;5.50;2.15;;;13.70;73.90;;;;;;5115876;28;20093;-61
2022/09/26 06:57:43;;;;;;;6.32;2.65;;;13.70;73.90;;;;;;5133201;27;20039;-61
2022/09/26 07:00:13;;;;;;;6.88;2.67;;;13.70;73.70;;;;;;5116014;27;20422;-61
2022/09/26 07:02:57;;;;;;;5.43;2.70;;;13.70;73.70;;;;;;5115835;28;20440;-62
2022/09/26 07:05:44;;;;;;;6.13;2.83;;;13.70;73.80;;;;;;5116864;28;20136;-61
2022/09/26 07:08:10;;;;;;;7.10;2.78;;;13.70;73.80;;;;;;5117919;27;20385;-61
2022/09/26 07:10:37;;;;;;;8.27;2.88;;;13.70;73.70;;;;;;5125763;27;20028;-61
2022/09/26 07:13:08;;;;;;;9.75;2.97;;;13.80;73.60;;;;;;5115119;28;20028;-61
2022/09/26 07:15:35;;;;;;;6.07;2.75;;;13.80;73.60;;;;;;5114534;28;20043;-62
2022/09/26 07:18:09;;;;;;;5.25;2.70;;;13.80;74.20;;;;;;5115170;28;20031;-61
2022/09/26 07:20:53;;;;;;;5.82;2.53;;;13.80;73.60;;;;;;5118700;27;20047;-61
2022/09/26 07:23:37;;;;;;;8.10;2.85;;;13.80;73.60;;;;;;5116477;27;20134;-62
2022/09/26 07:26:02;;;;;;;7.55;2.80;;;13.70;73.60;;;;;;5114002;28;20043;-62
2022/09/26 07:28:29;;;;;;;8.25;2.72;;;13.70;73.60;;;;;;5106745;28;20028;-62
2022/09/26 07:30:56;;;;;;;10.38;2.55;;;13.70;73.70;;;;;;5132122;27;20016;-62
2022/09/26 07:33:28;;;;;;;8.80;2.72;;;13.70;73.70;;;;;;5131058;27;20023;-62
2022/09/26 07:35:56;;;;;;;9.30;3.28;;;13.70;73.80;;;;;;5099993;27;20044;-62
2022/09/26 07:38:23;;;;;;;7.30;2.67;;;13.70;73.80;;;;;;5122174;27;20023;-62
2022/09/26 07:40:53;;;;;;;8.98;2.80;;;13.70;73.90;;;;;;5130595;27;20064;-62
2022/09/26 07:43:19;;;;;;;6.00;2.50;;;13.70;73.80;;;;;;5127337;27;20015;-62
2022/09/26 07:51:55;;;;;;;7.22;2.60;;;13.80;73.90;;;;;;5073381;28;20129;-62
2022/09/26 07:54:23;;;;;;;5.95;2.28;;;13.70;73.80;;;;;;5057059;28;20059;-62
2022/09/26 07:57:07;;;;;;;7.03;2.50;;;13.80;73.90;;;;;;5072357;28;20182;-62
2022/09/26 07:59:56;;;;;;;7.07;2.50;;;13.80;73.80;;;;;;4992715;28;20038;-61
2022/09/26 08:02:45;;;;;;;6.25;2.38;;;13.80;73.70;;;;;;4989546;28;20045;-61
2022/09/26 08:05:16;;;;;;;6.95;2.55;;;13.90;73.70;;;;;;4975664;28;20026;-61
2022/09/26 08:07:43;;;;;;;7.47;2.47;;;13.90;73.70;;;;;;4992094;28;20443;-61
2022/09/26 08:10:19;;;;;;;6.68;2.38;;;13.90;73.70;;;;;;4993541;28;20050;-62
2022/09/26 08:13:03;;;;;;;6.57;2.50;;;14.00;73.70;;;;;;4993654;28;20054;-61
2022/09/26 08:16:03;;;;;;;7.43;2.80;;;13.90;73.60;;;;;;4921485;29;20047;-61
2022/09/26 08:18:29;;;;;;;5.82;2.30;;;13.90;73.70;;;;;;4916980;29;20068;-62
2022/09/26 08:20:55;;;;;;;9.70;3.03;;;13.90;73.80;;;;;;4901623;29;20040;-61
2022/09/26 08:23:21;;;;;;;6.03;2.20;;;13.90;73.70;;;;;;4916974;29;20036;-61
2022/09/26 08:26:06;;;;;;;7.45;2.72;;;13.90;73.70;;;;;;4951542;28;20047;-61
2022/09/26 08:28:41;;;;;;;10.25;2.85;;;13.90;73.80;;;;;;4958483;28;20019;-61
2022/09/26 08:31:07;;;;;;;6.15;2.40;;;14.00;73.80;;;;;;4957314;28;20027;-62
2022/09/26 08:33:37;;;;;;;8.00;2.30;;;14.00;73.70;;;;;;4974199;28;20058;-61
2022/09/26 08:36:09;;;;;;;6.63;2.10;;;14.00;73.60;;;;;;4965743;28;20029;-61
2022/09/26 08:38:51;;;;;;;7.88;2.55;;;14.00;73.60;;;;;;5032802;28;20099;-61
2022/09/26 08:42:08;;;;;;;6.45;2.50;;;14.00;73.50;;;;;;5032878;28;20052;-61
2022/09/26 08:46:21;;;;;;;5.93;1.98;;;14.10;73.50;;;;;;5032078;28;20127;-62
2022/09/26 08:48:42;;;;;;;6.95;2.55;;;14.00;73.50;;;;;;5032851;28;20052;-61
2022/09/26 08:51:22;;;;;;;;;;;14.00;73.60;;;;;;5053834;27;20030;-61
2022/09/26 08:53:58;;;;;;;6.00;1.95;;;14.10;73.70;;;;;;5113589;28;20260;-61
2022/09/26 08:56:44;;;;;;;5.95;2.20;;;14.10;73.70;;;;;;5115132;28;20043;-66
2022/09/26 08:59:28;;;;;;;6.22;2.30;;;14.10;73.70;;;;;;5116753;28;20031;-61
2022/09/26 09:02:00;;;;;;;5.10;2.22;;;14.10;73.70;;;;;;5130557;28;20115;-61
2022/09/26 09:04:43;;;;;;;6.32;2.20;;;14.10;73.70;;;;;;5130543;28;20030;-61
2022/09/26 09:07:23;;;;;;;6.80;2.60;;;14.10;73.80;;;;;;5125850;27;20028;-62
2022/09/26 09:09:52;;;;;;;6.22;2.80;;;14.10;73.80;;;;;;5114282;28;20020;-62
2022/09/26 09:13:04;;;;;;;6.63;2.20;;;14.10;73.90;;;;;;5113433;28;20116;-61
2022/09/26 09:16:01;;;;;;;6.03;2.33;;;14.10;74.00;;;;;;5114187;28;20047;-61
2022/09/26 09:18:57;;;;;;;4.63;1.98;;;14.10;74.10;;;;;;5113281;28;20028;-61
2022/09/26 09:22:00;;;;;;;6.30;2.55;;;14.10;74.50;;;;;;5126158;27;20127;-61
2022/09/26 09:24:50;;;;;;;7.00;2.30;;;14.20;74.60;;;;;;5127065;28;20015;-62
2022/09/26 09:27:49;;;;;;;8.05;2.35;;;14.20;74.60;;;;;;5114709;28;20099;-61
2022/09/26 09:30:32;;;;;;;7.63;3.03;;;14.20;74.90;;;;;;5117397;28;20027;-61
2022/09/26 09:33:46;;;;;;;7.25;2.75;;;14.20;75.10;;;;;;5109838;28;20046;-61
2022/09/26 09:36:21;;;;;;;8.65;2.80;;;14.20;75.10;;;;;;5121208;27;20395;-61
2022/09/26 09:39:32;;;;;;;7.03;2.63;;;14.20;75.10;;;;;;5097428;28;20020;-61
2022/09/26 09:42:32;;;;;;;5.78;2.22;;;14.20;75.30;;;;;;5116105;28;20119;-61
2022/09/26 09:45:11;;;;;;;8.20;2.67;;;14.20;75.40;;;;;;5123583;27;20034;-61
2022/09/26 09:47:38;;;;;;;6.72;2.22;;;14.10;75.60;;;;;;5100755;28;20058;-61
2022/09/26 09:50:13;;;;;;;9.30;2.60;;;14.10;75.70;;;;;;5100214;28;20053;-61
2022/09/26 09:53:05;;;;;;;9.60;3.25;;;14.20;76.50;;;;;;5120145;27;20345;-61
2022/09/26 09:55:36;;;;;;;6.82;2.63;;;14.20;76.00;;;;;;5099474;28;20023;-61
2022/09/26 09:58:28;;;;;;;7.80;2.67;;;14.20;76.10;;;;;;5134454;27;20110;-61
2022/09/26 10:01:37;;;;;;;6.78;2.65;;;14.20;76.20;;;;;;5134072;27;20038;-61
2022/09/26 10:04:12;;;;;;;7.85;2.67;;;14.30;76.20;;;;;;5115247;28;20035;-61
2022/09/26 10:06:40;;;;;;;8.65;2.72;;;14.20;76.30;;;;;;5134407;27;20047;-61
2022/09/26 10:09:26;;;;;;;8.32;2.80;;;14.30;76.50;;;;;;5132668;27;20032;-61
2022/09/26 10:12:17;;;;;;;6.97;2.70;;;14.30;76.60;;;;;;5122749;27;20069;-61
2022/09/26 10:15:06;;;;;;;7.88;2.70;;;14.30;76.70;;;;;;5116949;28;20384;-61
2022/09/26 10:18:05;;;;;;;8.43;2.92;;;14.30;76.70;;;;;;5118536;27;20073;-61
2022/09/26 10:21:07;;;;;;;5.90;2.80;;;14.30;76.90;;;;;;5131916;27;20335;-61
2022/09/26 10:23:41;;;;;;;8.00;2.97;;;14.30;77.10;;;;;;5117063;27;20122;-60
2022/09/26 10:26:27;;;;;;;8.25;3.17;;;14.20;77.10;;;;;;5132162;27;20031;-62
2022/09/26 10:28:55;;;;;;;6.00;2.83;;;14.20;77.30;;;;;;5132599;27;20030;-62
2022/09/26 10:31:54;;;;;;;8.82;3.08;;;14.20;77.40;;;;;;5120367;27;20047;-62
2022/09/26 10:34:31;;;;;;;8.10;2.53;;;14.20;77.40;;;;;;5116098;28;20168;-62
2022/09/26 10:37:20;;;;;;;6.75;3.03;;;14.10;77.60;;;;;;5131545;27;20019;-61
2022/09/26 10:42:45;;;;;;;6.15;2.40;;;14.10;77.90;;;;;;5115247;27;20114;-61
2022/09/26 10:45:20;;;;;;;8.85;2.83;;;14.10;77.90;;;;;;5117197;27;20019;-62
2022/09/26 10:48:15;;;;;;;8.80;2.90;;;14.10;78.10;;;;;;5109520;28;20115;-62
2022/09/26 10:51:00;;;;;;;6.50;2.55;;;14.10;78.30;;;;;;5116794;28;20118;-61
2022/09/26 10:53:42;;;;;;;6.20;2.45;;;14.10;78.40;;;;;;5132988;27;20053;-62
2022/09/26 10:56:13;;;;;;;6.82;3.08;;;14.10;78.50;;;;;;5114598;27;20039;-62
2022/09/26 10:58:44;;;;;;;9.93;3.35;;;14.10;78.80;;;;;;5132746;27;20024;-61
2022/09/26 11:01:25;;;;;;;8.30;3.22;;;14.00;78.80;;;;;;5132405;27;20046;-61
2022/09/26 11:03:54;;;;;;;9.40;3.35;;;14.00;79.10;;;;;;5119361;27;20374;-62
2022/09/26 11:06:34;;;;;;;6.90;3.00;;;14.00;79.10;;;;;;5107562;27;20032;-62
2022/09/26 11:09:19;;;;;;;6.68;3.00;;;14.00;79.30;;;;;;5115801;28;20114;-62
2022/09/26 11:12:53;;;;;;;6.68;3.00;;;14.00;79.40;;;;;;5122225;27;20047;-62
2022/09/26 11:15:19;;;;;;;8.43;3.30;;;14.00;79.40;;;;;;5048794;28;20047;-62
2022/09/26 11:17:48;;;;;;;6.60;3.28;;;14.00;79.50;;;;;;5048778;28;20186;-62
2022/09/26 11:20:33;;;;;;;6.57;3.20;;;14.00;79.60;;;;;;5036575;28;20028;-62
2022/09/26 11:23:36;;;;;;;9.27;3.40;;;14.00;79.80;;;;;;5053865;28;20461;-62
2022/09/26 11:26:17;;;;;;;7.20;3.00;;;14.10;79.90;;;;;;5031175;28;20032;-62
2022/09/26 11:28:54;;;;;;;7.43;2.95;;;14.10;80.00;;;;;;5051050;28;20053;-62
2022/09/26 11:31:34;;;;;;;6.60;2.50;;;14.00;80.00;;;;;;5045157;28;20104;-62
2022/09/26 11:34:27;;;;;;;10.05;3.10;;;14.10;80.10;;;;;;5053217;28;20523;-61
2022/09/26 11:37:28;;;;;;;7.10;2.50;;;14.00;80.20;;;;;;5051943;28;20151;-62
2022/09/26 11:40:32;;;;;;;8.25;3.20;;;14.10;80.30;;;;;;5052795;28;20025;-62
2022/09/26 11:42:58;;;;;;;6.05;2.80;;;14.10;80.40;;;;;;5053885;28;20186;-62
2022/09/26 11:46:11;;;;;;;7.43;2.97;;;14.10;80.40;;;;;;5040521;28;20024;-62
2022/09/26 11:49:35;;;;;;;5.95;2.45;;;14.10;80.50;;;;;;5066655;27;20032;-62
2022/09/26 11:52:54;;;;;;;5.45;2.58;;;14.10;80.60;;;;;;5104622;27;20028;-61
2022/09/26 11:55:48;;;;;;;6.00;2.28;;;14.00;80.60;;;;;;5076270;28;20039;-62
2022/09/26 11:58:32;;;;;;;8.93;2.75;;;14.10;80.70;;;;;;5079820;28;20457;-62
2022/09/26 12:01:37;;;;;;;6.90;2.30;;;14.10;80.70;;;;;;5073203;28;20086;-62
2022/09/26 12:04:05;;;;;;;5.75;2.30;;;14.10;80.70;;;;;;5081416;28;20068;-62
2022/09/26 12:06:50;;;;;;;5.85;2.40;;;14.10;80.70;;;;;;5079337;28;20484;-62
2022/09/26 12:09:37;;;;;;;5.68;2.47;;;14.10;80.90;;;;;;5076083;28;20161;-62
2022/09/26 12:12:15;;;;;;;5.57;2.30;;;14.10;80.90;;;;;;5077462;28;20550;-62
2022/09/26 12:15:10;;;;;;;6.00;2.38;;;14.10;81.00;;;;;;5075121;28;20194;-61
2022/09/26 12:17:58;;;;;;;5.03;2.20;;;14.10;80.90;;;;;;5073915;28;20060;-63
2022/09/26 12:20:42;;;;;;;4.45;2.05;;;14.10;81.00;;;;;;5082683;28;20028;-61
2022/09/26 12:23:37;;;;;;;6.10;2.63;;;14.10;81.10;;;;;;5086559;28;20084;-61
2022/09/26 12:26:33;;;;;;;8.02;2.40;;;14.20;81.20;;;;;;5081794;28;20464;-62
2022/09/26 12:29:22;;;;;;;4.80;2.22;;;14.20;81.30;;;;;;5072609;28;20032;-61
2022/09/26 12:32:25;;;;;;;7.85;2.30;;;14.20;81.30;;;;;;5100422;28;20016;-61
2022/09/26 12:35:09;;;;;;;6.93;2.42;;;14.20;81.30;;;;;;5094210;28;20374;-61
2022/09/26 12:38:00;;;;;;;7.40;2.45;;;14.20;81.30;;;;;;5099112;28;20048;-61
2022/09/26 12:40:38;;;;;;;5.63;2.00;;;14.30;81.50;;;;;;5100032;28;20032;-61
2022/09/26 12:43:48;;;;;;;6.80;2.20;;;14.20;81.50;;;;;;5096472;27;20043;-61
2022/09/26 12:46:44;;;;;;;5.40;1.95;;;14.20;81.50;;;;;;5100285;28;20095;-61
2022/09/26 12:49:52;;;;;;;3.78;1.88;;;14.20;81.50;;;;;;5101685;28;20352;-61
2022/09/26 12:52:17;;;;;;;12.30;2.75;;;14.20;81.60;;;;;;5073034;28;20052;-62
2022/09/26 12:55:02;;;;;;;6.75;2.15;;;14.20;81.60;;;;;;5078582;28;20127;-62
2022/09/26 12:57:37;;;;;;;5.20;2.30;;;14.30;81.80;;;;;;5077546;28;20040;-62
2022/09/26 13:00:11;;;;;;;5.32;1.98;;;14.30;81.80;;;;;;5083711;28;20085;-61
2022/09/26 13:02:46;;;;;;;5.60;2.10;;;14.30;81.80;;;;;;5098221;28;20379;-62
2022/09/26 13:05:19;;;;;;;4.10;1.90;;;14.30;81.80;;;;;;5092857;28;20063;-62
2022/09/26 13:08:01;;;;;;;3.85;2.00;;;14.30;81.80;;;;;;5094278;28;20032;-62
2022/09/26 13:10:46;;;;;;;5.15;2.42;;;14.30;81.90;;;;;;5093408;28;20131;-62
2022/09/26 13:13:33;;;;;;;5.85;2.20;;;14.40;81.90;;;;;;5088645;28;20028;-61
2022/09/26 13:16:34;;;;;;;5.32;1.85;;;14.40;81.90;;;;;;5094688;28;20071;-62
2022/09/26 13:19:09;;;;;;;4.67;1.73;;;14.40;81.80;;;;;;5063479;28;20040;-62
2022/09/26 13:21:49;;;;;;;4.20;1.75;;;14.40;81.70;;;;;;5062916;28;20115;-62
2022/09/26 13:24:30;;;;;;;4.30;1.52;;;14.40;81.80;;;;;;5079578;28;20118;-62
2022/09/26 13:27:19;;;;;;;6.18;1.77;;;14.40;82.00;;;;;;5096400;28;20555;-62
2022/09/26 13:29:57;;;;;;;3.97;1.80;;;14.40;82.00;;;;;;5113791;28;20176;-62
2022/09/26 13:32:29;;;;;;;3.72;1.67;;;14.40;82.00;;;;;;5100007;28;20432;-61
2022/09/26 13:35:05;;;;;;;3.15;1.40;;;14.30;82.00;;;;;;5118614;28;20031;-63
2022/09/26 13:37:59;;;;;;;5.90;1.88;;;14.30;82.10;;;;;;5117321;28;20128;-63
2022/09/26 13:40:38;;;;;;;5.25;1.95;;;14.40;82.20;;;;;;5118185;27;20038;-62
2022/09/26 13:43:16;;;;;;;3.70;1.67;;;14.40;82.10;;;;;;5117012;27;20028;-63
2022/09/26 13:45:59;;;;;;;3.63;1.63;;;14.40;82.20;;;;;;5132619;27;20035;-62
2022/09/26 13:48:30;;;;;;;3.75;1.60;;;14.40;82.20;;;;;;5120476;27;20184;-63
2022/09/26 13:51:10;;;;;;;3.42;1.55;;;14.40;82.20;;;;;;5105906;28;20020;-62
2022/09/26 13:53:50;;;;;;;4.20;1.90;;;14.40;82.30;;;;;;5106788;27;20351;-62